Time,TemperatureF,DewpointF,PressureIn,WindDirection,WindDirectionDegrees,WindSpeedMPH,WindSpeedGustMPH,Humidity,HourlyPrecipIn,Conditions,Clouds,dailyrainin,SolarRadiationWatts/m^2,SoftwareType,DateUTC
2013-10-01 00:05:00,41.4,35.0,31.51,SE,146,11.0,19.0,78,0.00,,,0.00,0,weatherlink.com 1.10,2013-10-01 06:05:00,
2013-10-01 00:20:00,41.1,35.0,31.52,SSE,149,20.0,20.0,80,0.00,,,0.00,0,weatherlink.com 1.10,2013-10-01 06:20:00,
2013-10-01 00:35:00,41.2,35.0,31.51,SSW,196,13.0,21.0,77,0.01,,,0.01,0,weatherlink.com 1.10,2013-10-01 06:35:00,
2013-10-01 00:50:00,41.8,34.0,31.51,East,92,3.0,9.0,73,0.01,,,0.01,0,weatherlink.com 1.10,2013-10-01 06:50:00,
2013-10-01 01:05:00,40.5,34.0,31.51,ESE,117,0.0,4.0,78,0.01,,,0.01,0,weatherlink.com 1.10,2013-10-01 07:05:00,
2013-10-01 01:20:00,39.3,35.0,31.52,ESE,118,0.0,2.0,85,0.01,,,0.01,0,weatherlink.com 1.10,2013-10-01 07:20:00,
2013-10-01 01:35:00,38.7,36.0,31.52,ESE,109,0.0,3.0,88,0.00,,,0.01,0,weatherlink.com 1.10,2013-10-01 07:35:00,
2013-10-01 01:50:00,38.7,36.0,31.51,ENE,61,7.0,7.0,89,0.01,,,0.02,0,weatherlink.com 1.10,2013-10-01 07:50:00,
2013-10-01 02:05:00,39.3,35.0,31.51,East,82,1.0,8.0,84,0.01,,,0.02,0,weatherlink.com 1.10,2013-10-01 08:05:00,
2013-10-01 02:20:00,40.2,35.0,31.52,South,171,0.0,8.0,82,0.01,,,0.02,0,weatherlink.com 1.10,2013-10-01 08:20:00,
2013-10-01 02:36:00,39.5,35.0,31.52,SE,126,1.0,4.0,84,0.01,,,0.02,0,weatherlink.com 1.10,2013-10-01 08:36:00,
2013-10-01 02:50:00,39.9,35.0,31.53,SE,126,0.0,3.0,82,0.00,,,0.02,0,weatherlink.com 1.10,2013-10-01 08:50:00,
2013-10-01 03:06:00,40.2,35.0,31.52,SE,126,0.0,2.0,82,0.00,,,0.02,0,weatherlink.com 1.10,2013-10-01 09:06:00,
2013-10-01 03:20:00,39.7,35.0,31.51,SE,126,0.0,2.0,83,0.00,,,0.02,0,weatherlink.com 1.10,2013-10-01 09:20:00,
2013-10-01 03:36:00,40.1,34.0,31.51,East,95,2.0,7.0,80,0.00,,,0.02,0,weatherlink.com 1.10,2013-10-01 09:36:00,
2013-10-01 03:51:00,40.3,34.0,31.50,ESE,112,1.0,5.0,79,0.00,,,0.02,0,weatherlink.com 1.10,2013-10-01 09:51:00,
2013-10-01 04:06:00,39.8,35.0,31.51,SSE,163,0.0,4.0,82,0.00,,,0.02,0,weatherlink.com 1.10,2013-10-01 10:06:00,
2013-10-01 04:21:00,38.8,34.0,31.51,SE,139,0.0,4.0,83,0.00,,,0.02,0,weatherlink.com 1.10,2013-10-01 10:21:00,
2013-10-01 04:36:00,39.0,34.0,31.51,SE,139,3.0,6.0,83,0.00,,,0.02,0,weatherlink.com 1.10,2013-10-01 10:36:00,
2013-10-01 04:51:00,40.0,34.0,31.51,SSE,159,2.0,8.0,80,0.00,,,0.02,0,weatherlink.com 1.10,2013-10-01 10:51:00,
2013-10-01 05:21:00,39.1,34.0,31.51,SSE,157,1.0,1.0,82,0.00,,,0.02,0,weatherlink.com 1.10,2013-10-01 11:21:00,
2013-10-01 05:36:00,39.3,34.0,31.51,SSE,157,1.0,1.0,82,0.00,,,0.02,0,weatherlink.com 1.10,2013-10-01 11:36:00,
2013-10-01 05:51:00,40.6,34.0,31.51,SSE,148,1.0,7.0,78,0.00,,,0.02,0,weatherlink.com 1.10,2013-10-01 11:51:00,
2013-10-01 06:06:00,38.8,34.0,31.52,WNW,289,0.0,1.0,84,0.00,,,0.02,0,weatherlink.com 1.10,2013-10-01 12:06:00,
2013-10-01 06:21:00,38.9,34.0,31.52,WNW,289,0.0,3.0,83,0.00,,,0.02,0,weatherlink.com 1.10,2013-10-01 12:21:00,
2013-10-01 06:36:00,38.7,34.0,31.53,NW,321,2.0,5.0,84,0.00,,,0.02,0,weatherlink.com 1.10,2013-10-01 12:36:00,
2013-10-01 06:51:00,37.5,34.0,31.53,NW,321,0.0,2.0,88,0.00,,,0.02,0,weatherlink.com 1.10,2013-10-01 12:51:00,
2013-10-01 07:06:00,37.8,35.0,31.53,NW,320,0.0,3.0,88,0.00,,,0.02,0,weatherlink.com 1.10,2013-10-01 13:06:00,
2013-10-01 07:21:00,38.1,35.0,31.53,NNW,340,5.0,6.0,87,0.00,,,0.02,0,weatherlink.com 1.10,2013-10-01 13:21:00,
2013-10-01 07:36:00,38.5,34.0,31.54,NNE,21,2.0,7.0,85,0.00,,,0.02,0,weatherlink.com 1.10,2013-10-01 13:36:00,
2013-10-01 07:51:00,38.6,34.0,31.53,North,5,9.0,14.0,84,0.00,,,0.02,7,weatherlink.com 1.10,2013-10-01 13:51:00,
2013-10-01 08:06:00,38.5,34.0,31.53,NE,48,1.0,7.0,84,0.00,,,0.02,9,weatherlink.com 1.10,2013-10-01 14:06:00,
2013-10-01 08:21:00,38.5,34.0,31.54,North,11,2.0,8.0,85,0.00,,,0.02,11,weatherlink.com 1.10,2013-10-01 14:21:00,
2013-10-01 08:36:00,38.0,35.0,31.54,NNE,13,5.0,7.0,88,0.00,,,0.02,19,weatherlink.com 1.10,2013-10-01 14:36:00,
2013-10-01 08:51:00,37.4,34.0,31.55,NNE,14,6.0,9.0,88,0.00,,,0.02,25,weatherlink.com 1.10,2013-10-01 14:51:00,
2013-10-01 09:06:00,37.4,35.0,31.55,NNE,18,3.0,8.0,89,0.00,,,0.02,23,weatherlink.com 1.10,2013-10-01 15:06:00,
2013-10-01 09:21:00,37.4,35.0,31.56,North,11,0.0,5.0,89,0.00,,,0.02,25,weatherlink.com 1.10,2013-10-01 15:21:00,
2013-10-01 09:36:00,37.9,34.0,31.57,NNE,15,2.0,6.0,86,0.00,,,0.02,56,weatherlink.com 1.10,2013-10-01 15:36:00,
2013-10-01 09:51:00,38.7,34.0,31.56,North,11,2.0,5.0,84,0.00,,,0.02,63,weatherlink.com 1.10,2013-10-01 15:51:00,
2013-10-01 10:06:00,39.2,34.0,31.57,North,11,0.0,5.0,82,0.00,,,0.02,53,weatherlink.com 1.10,2013-10-01 16:06:00,
2013-10-01 10:21:00,39.6,34.0,31.57,NNE,16,0.0,4.0,81,0.00,,,0.02,58,weatherlink.com 1.10,2013-10-01 16:21:00,
2013-10-01 10:36:00,40.1,35.0,31.57,NNE,16,2.0,3.0,81,0.00,,,0.02,88,weatherlink.com 1.10,2013-10-01 16:36:00,
2013-10-01 10:51:00,40.9,36.0,31.57,NNE,15,3.0,4.0,81,0.00,,,0.02,171,weatherlink.com 1.10,2013-10-01 16:51:00,
2013-10-01 11:06:00,40.8,35.0,31.56,NE,44,3.0,10.0,81,0.00,,,0.02,269,weatherlink.com 1.10,2013-10-01 17:06:00,
2013-10-01 11:21:00,42.0,34.0,31.56,North,5,5.0,8.0,73,0.00,,,0.02,283,weatherlink.com 1.10,2013-10-01 17:21:00,
2013-10-01 11:36:00,42.0,34.0,31.56,NNE,29,4.0,10.0,74,0.00,,,0.02,186,weatherlink.com 1.10,2013-10-01 17:36:00,
2013-10-01 11:51:00,42.4,35.0,31.56,NNW,329,5.0,7.0,75,0.00,,,0.02,693,weatherlink.com 1.10,2013-10-01 17:51:00,
2013-10-01 12:06:00,43.0,34.0,31.56,North,350,5.0,9.0,71,0.00,,,0.02,232,weatherlink.com 1.10,2013-10-01 18:06:00,
2013-10-01 12:21:00,43.3,34.0,31.56,NNW,332,5.0,9.0,71,0.00,,,0.02,330,weatherlink.com 1.10,2013-10-01 18:21:00,
2013-10-01 12:36:00,44.4,34.0,31.56,WNW,302,5.0,8.0,68,0.00,,,0.02,267,weatherlink.com 1.10,2013-10-01 18:36:00,
2013-10-01 12:51:00,43.8,34.0,31.55,WNW,295,4.0,9.0,68,0.00,,,0.02,276,weatherlink.com 1.10,2013-10-01 18:51:00,
2013-10-01 13:06:00,44.2,34.0,31.55,NW,315,6.0,8.0,67,0.00,,,0.02,373,weatherlink.com 1.10,2013-10-01 19:06:00,
2013-10-01 13:21:00,43.5,33.0,31.55,North,349,3.0,8.0,67,0.00,,,0.02,227,weatherlink.com 1.10,2013-10-01 19:21:00,
2013-10-01 13:36:00,44.5,34.0,31.55,NNW,348,1.0,6.0,66,0.00,,,0.02,367,weatherlink.com 1.10,2013-10-01 19:36:00,
2013-10-01 13:51:00,45.2,33.0,31.55,NW,309,3.0,4.0,63,0.00,,,0.02,316,weatherlink.com 1.10,2013-10-01 19:51:00,
2013-10-01 14:06:00,45.8,32.0,31.54,NW,315,0.0,5.0,60,0.00,,,0.02,323,weatherlink.com 1.10,2013-10-01 20:06:00,
2013-10-01 14:21:00,45.6,33.0,31.54,SSW,200,5.0,7.0,61,0.00,,,0.02,364,weatherlink.com 1.10,2013-10-01 20:21:00,
2013-10-01 14:36:00,46.0,33.0,31.54,SSW,205,7.0,12.0,61,0.00,,,0.02,369,weatherlink.com 1.10,2013-10-01 20:36:00,
2013-10-01 14:52:00,46.7,34.0,31.53,South,184,7.0,13.0,62,0.00,,,0.02,325,weatherlink.com 1.10,2013-10-01 20:52:00,
2013-10-01 15:07:00,47.7,33.0,31.53,South,174,0.0,11.0,57,0.00,,,0.02,383,weatherlink.com 1.10,2013-10-01 21:07:00,
2013-10-01 15:22:00,47.3,33.0,31.53,SSW,205,5.0,11.0,58,0.00,,,0.02,763,weatherlink.com 1.10,2013-10-01 21:22:00,
2013-10-01 15:37:00,47.3,33.0,31.53,WSW,240,0.0,11.0,58,0.00,,,0.02,190,weatherlink.com 1.10,2013-10-01 21:37:00,
2013-10-01 15:52:00,47.0,34.0,31.53,West,275,0.0,6.0,61,0.00,,,0.02,181,weatherlink.com 1.10,2013-10-01 21:52:00,
2013-10-01 16:22:00,48.1,35.0,31.52,NW,306,4.0,7.0,62,0.00,,,0.02,204,weatherlink.com 1.10,2013-10-01 22:22:00,
2013-10-01 16:37:00,48.1,32.0,31.51,NW,313,2.0,6.0,55,0.00,,,0.02,520,weatherlink.com 1.10,2013-10-01 22:37:00,
2013-10-01 16:52:00,48.0,33.0,31.51,NW,325,3.0,7.0,57,0.00,,,0.02,360,weatherlink.com 1.10,2013-10-01 22:52:00,
2013-10-01 17:07:00,48.3,33.0,31.51,NW,326,3.0,5.0,56,0.00,,,0.02,410,weatherlink.com 1.10,2013-10-01 23:07:00,
2013-10-01 17:22:00,47.4,33.0,31.51,NW,315,3.0,6.0,57,0.00,,,0.02,348,weatherlink.com 1.10,2013-10-01 23:22:00,
2013-10-01 17:37:00,47.3,32.0,31.52,NW,309,9.0,14.0,55,0.00,,,0.02,67,weatherlink.com 1.10,2013-10-01 23:37:00,
2013-10-01 17:52:00,47.4,33.0,31.52,NW,322,6.0,12.0,58,0.00,,,0.02,295,weatherlink.com 1.10,2013-10-01 23:52:00,
2013-10-01 18:07:00,46.4,34.0,31.52,NNW,335,9.0,12.0,63,0.00,,,0.02,258,weatherlink.com 1.10,2013-10-02 00:07:00,
2013-10-01 18:22:00,45.0,34.0,31.53,NNW,327,5.0,10.0,66,0.00,,,0.02,37,weatherlink.com 1.10,2013-10-02 00:22:00,
2013-10-01 18:37:00,43.8,34.0,31.54,North,9,3.0,7.0,69,0.00,,,0.02,18,weatherlink.com 1.10,2013-10-02 00:37:00,
2013-10-01 18:52:00,43.4,34.0,31.54,NNW,328,1.0,6.0,69,0.00,,,0.02,9,weatherlink.com 1.10,2013-10-02 00:52:00,
2013-10-01 19:07:00,43.0,34.0,31.56,North,360,4.0,6.0,70,0.00,,,0.02,0,weatherlink.com 1.10,2013-10-02 01:07:00,
2013-10-01 19:22:00,42.7,34.0,31.57,North,360,1.0,9.0,72,0.00,,,0.02,0,weatherlink.com 1.10,2013-10-02 01:22:00,
2013-10-01 19:37:00,42.4,34.0,31.56,NNE,22,4.0,9.0,72,0.00,,,0.02,0,weatherlink.com 1.10,2013-10-02 01:37:00,
2013-10-01 19:52:00,42.1,34.0,31.57,NNE,24,6.0,11.0,72,0.00,,,0.02,0,weatherlink.com 1.10,2013-10-02 01:52:00,
2013-10-01 20:07:00,42.4,33.0,31.57,NNE,13,7.0,13.0,70,0.00,,,0.02,0,weatherlink.com 1.10,2013-10-02 02:07:00,
2013-10-01 20:22:00,42.4,33.0,31.58,NE,38,4.0,11.0,69,0.00,,,0.02,0,weatherlink.com 1.10,2013-10-02 02:22:00,
2013-10-01 20:37:00,42.5,33.0,31.59,NE,34,4.0,10.0,68,0.00,,,0.02,0,weatherlink.com 1.10,2013-10-02 02:37:00,
2013-10-01 20:52:00,42.5,33.0,31.59,NNW,347,9.0,10.0,69,0.00,,,0.02,0,weatherlink.com 1.10,2013-10-02 02:52:00,
2013-10-01 21:07:00,42.8,32.0,31.60,NNW,338,8.0,10.0,65,0.00,,,0.02,0,weatherlink.com 1.10,2013-10-02 03:07:00,
2013-10-01 21:22:00,41.4,33.0,31.60,NNW,342,5.0,7.0,72,0.00,,,0.02,0,weatherlink.com 1.10,2013-10-02 03:22:00,
2013-10-01 21:37:00,40.9,33.0,31.61,North,360,3.0,8.0,72,0.00,,,0.02,0,weatherlink.com 1.10,2013-10-02 03:37:00,
2013-10-01 21:52:00,41.8,32.0,31.61,NNE,17,4.0,6.0,69,0.00,,,0.02,0,weatherlink.com 1.10,2013-10-02 03:52:00,
2013-10-01 22:07:00,41.7,32.0,31.62,North,360,8.0,10.0,69,0.00,,,0.02,0,weatherlink.com 1.10,2013-10-02 04:07:00,
2013-10-01 22:22:00,41.8,32.0,31.62,North,5,4.0,10.0,68,0.00,,,0.02,0,weatherlink.com 1.10,2013-10-02 04:22:00,
2013-10-01 22:37:00,41.7,31.0,31.63,North,350,6.0,8.0,67,0.00,,,0.02,0,weatherlink.com 1.10,2013-10-02 04:37:00,
2013-10-01 22:52:00,41.8,31.0,31.64,North,5,3.0,8.0,66,0.00,,,0.02,0,weatherlink.com 1.10,2013-10-02 04:52:00,
2013-10-01 23:07:00,41.9,31.0,31.65,NNW,342,2.0,7.0,66,0.00,,,0.02,0,weatherlink.com 1.10,2013-10-02 05:07:00,
2013-10-01 23:22:00,41.7,32.0,31.65,WNW,284,1.0,7.0,68,0.00,,,0.02,0,weatherlink.com 1.10,2013-10-02 05:22:00,
2013-10-01 23:37:00,41.5,32.0,31.65,WNW,284,0.0,4.0,68,0.00,,,0.02,0,weatherlink.com 1.10,2013-10-02 05:37:00,
2013-10-01 23:52:00,41.0,32.0,31.66,NW,311,2.0,5.0,69,0.00,,,0.02,0,weatherlink.com 1.10,2013-10-02 05:52:00,